Clay, California
Current Conditions -  °F | °C
As of 3:00 AM on Monday 22 Dec 2014 (Local Time) from KMHR Reporting Station
Moderate Fog Moderate Fog  
Wind Chill: 54°   Ceiling: 200
Heat Index: 54°   Visibility: 0.25mi
Dew Point: 54°   Wind: 7mph
Humidity: 100%   Direction: 330°NNW
Pressure: 30.26"   Gusts: NA
Location:  38.3418°N, 121.11°W
Report Text: KMHR 221100Z 33006KT 1/4SM FG OVC002 12/12 A3026
Loading
Personal Weather Stations






























Interactive Weather Map New forecast layout! Learn more

10-Day Weather Forecast

Advertisements
Track Severe Weather on mobile